Time;durP1;ratioP1;P1;durP2;ratioP2;P2;SDS_P1;SDS_P2;PMS_P1;PMS_P2;Temp;Humidity;BMP_temperature;BMP_pressure;BME280_temperature;BME280_humidity;BME280_pressure;Samples;Min_cycle;Max_cycle;Signal;HPM_P1;HPM_P2
2021/01/04 00:01:18;;;;;;;;;;;6.90;67.60;;;;;;5133941;27;20402;-72
2021/01/04 00:03:44;;;;;;;;;;;6.80;69.60;;;;;;5134284;27;20055;-73
2021/01/04 00:06:17;;;;;;;;;;;6.80;68.40;;;;;;5134097;27;19923;-72
2021/01/04 00:08:46;;;;;;;;;;;7.10;69.70;;;;;;5133655;27;19996;-72
2021/01/04 00:11:28;;;;;;;;;;;7.20;68.10;;;;;;5116901;27;19949;-72
2021/01/04 00:14:16;;;;;;;;;;;7.10;67.10;;;;;;5113302;28;20318;-73
2021/01/04 00:16:45;;;;;;;;;;;7.30;67.60;;;;;;5123558;27;19927;-72
2021/01/04 00:19:19;;;;;;;;;;;7.20;67.60;;;;;;5133599;27;19937;-73
2021/01/04 00:21:49;;;;;;;;;;;7.30;68.70;;;;;;5133701;27;19931;-73
2021/01/04 00:24:34;;;;;;;;;;;7.10;66.70;;;;;;5134168;27;19924;-71
2021/01/04 00:27:19;;;;;;;;;;;7.10;67.30;;;;;;5135841;27;19927;-73
2021/01/04 00:29:46;;;;;;;;;;;7.00;67.20;;;;;;5135543;27;19923;-69
2021/01/04 00:32:21;;;;;;;;;;;6.80;68.10;;;;;;5136388;27;19930;-72
2021/01/04 00:34:50;;;;;;;;;;;6.90;68.60;;;;;;5136945;27;19930;-71
2021/01/04 00:37:23;;;;;;;;;;;7.00;67.80;;;;;;5134381;27;19930;-73
2021/01/04 00:40:14;;;;;;;;;;;7.00;67.00;;;;;;5116263;27;19933;-72
2021/01/04 00:42:45;;;;;;;;;;;7.30;66.80;;;;;;5085431;27;20208;-72
2021/01/04 00:45:22;;;;;;;;;;;7.20;65.90;;;;;;5133827;27;19924;-72
2021/01/04 00:47:51;;;;;;;;;;;7.10;67.80;;;;;;5133072;27;19923;-71
2021/01/04 00:50:47;;;;;;;;;;;6.90;66.70;;;;;;5133120;27;19977;-72
2021/01/04 00:53:28;;;;;;;;;;;6.60;68.00;;;;;;5133248;27;20005;-72
2021/01/04 00:56:13;;;;;;;;;;;6.60;68.30;;;;;;5133205;27;19935;-72
2021/01/04 00:58:39;;;;;;;;;;;6.60;69.40;;;;;;5133109;27;19923;-72
2021/01/04 01:01:11;;;;;;;;;;;6.60;68.50;;;;;;5133383;27;19947;-72
2021/01/04 01:03:47;;;;;;;;;;;6.60;69.60;;;;;;5133217;27;19927;-73
2021/01/04 01:06:13;;;;;;;;;;;7.00;70.50;;;;;;5114348;27;19923;-72
2021/01/04 01:08:39;;;;;;;;;;;7.50;66.60;;;;;;5132432;27;20371;-72
2021/01/04 01:11:12;;;;;;;;;;;7.40;67.50;;;;;;5117178;27;19924;-73
2021/01/04 01:13:57;;;;;;;;;;;7.80;66.20;;;;;;5112074;28;20399;-72
2021/01/04 01:16:30;;;;;;;;;;;7.40;64.40;;;;;;5120110;27;20090;-72
2021/01/04 01:19:05;;;;;;;;;;;7.10;66.10;;;;;;5133021;27;20395;-71
2021/01/04 01:21:33;;;;;;;;;;;7.40;67.30;;;;;;5132755;27;19927;-71
2021/01/04 01:24:01;;;;;;;;;;;7.30;66.60;;;;;;5133134;27;20027;-73
2021/01/04 01:26:40;;;;;;;;;;;6.80;66.90;;;;;;5134089;27;19934;-72
2021/01/04 01:29:18;;;;;;;;;;;6.60;68.10;;;;;;5134922;27;19930;-73
2021/01/04 01:31:56;;;;;;;;;;;6.50;68.90;;;;;;5134666;27;19935;-73
2021/01/04 01:34:38;;;;;;;;;;;6.80;67.90;;;;;;5134351;27;19931;-76
2021/01/04 01:37:10;;;;;;;;;;;6.80;68.00;;;;;;5133317;27;19931;-73
2021/01/04 01:39:46;;;;;;;;;;;7.20;66.90;;;;;;5132950;27;19923;-72
2021/01/04 01:42:15;;;;;;;;;;;7.00;67.80;;;;;;5131982;27;19924;-72
2021/01/04 01:44:56;;;;;;;;;;;6.80;67.30;;;;;;5132050;27;20384;-72
2021/01/04 01:47:41;;;;;;;;;;;6.80;68.00;;;;;;5132279;27;19929;-72
2021/01/04 01:50:16;;;;;;;;;;;7.00;68.60;;;;;;5131760;27;19923;-71
2021/01/04 01:53:01;;;;;;;;;;;7.10;66.70;;;;;;5131812;27;20014;-72
2021/01/04 01:55:32;;;;;;;;;;;7.70;67.90;;;;;;5131651;27;19930;-71
2021/01/04 01:58:17;;;;;;;;;;;7.90;64.50;;;;;;5132106;27;19946;-72
2021/01/04 02:00:54;;;;;;;;;;;7.90;64.10;;;;;;5132147;27;19930;-73
2021/01/04 02:03:26;;;;;;;;;;;7.50;63.70;;;;;;5131812;27;19938;-71
2021/01/04 02:05:52;;;;;;;;;;;7.40;66.00;;;;;;5131508;27;19923;-71
2021/01/04 02:08:30;;;;;;;;;;;7.10;66.50;;;;;;5132691;27;20069;-72
2021/01/04 02:10:58;;;;;;;;;;;7.20;66.00;;;;;;5117957;27;19934;-71
2021/01/04 02:13:31;;;;;;;;;;;7.10;68.60;;;;;;5111472;28;19924;-71
2021/01/04 02:16:00;;;;;;;;;;;7.50;65.10;;;;;;5115590;27;19935;-71
2021/01/04 02:18:45;;;;;;;;;;;7.70;65.00;;;;;;5131871;27;19929;-72
2021/01/04 02:21:18;;;;;;;;;;;7.80;64.90;;;;;;5130975;27;19924;-71
2021/01/04 02:24:04;;;;;;;;;;;8.40;64.20;;;;;;5131575;27;19930;-72
2021/01/04 02:26:31;;;;;;;;;;;8.50;64.10;;;;;;5130557;27;19934;-72
2021/01/04 02:29:08;;;;;;;;;;;8.60;62.90;;;;;;5131217;27;19934;-72
2021/01/04 02:31:36;;;;;;;;;;;8.30;61.70;;;;;;5131120;27;20303;-72
2021/01/04 02:34:04;;;;;;;;;;;8.00;62.50;;;;;;5130966;27;19931;-72
2021/01/04 02:36:34;;;;;;;;;;;7.60;63.60;;;;;;5130793;27;19933;-71
2021/01/04 02:39:03;;;;;;;;;;;7.50;64.80;;;;;;5131027;27;19923;-72
2021/01/04 02:41:41;;;;;;;;;;;7.20;66.00;;;;;;5131256;27;19984;-72
2021/01/04 02:44:07;;;;;;;;;;;6.90;66.70;;;;;;5131405;27;19935;-71
2021/01/04 02:46:36;;;;;;;;;;;6.90;68.40;;;;;;5112999;27;19946;-72
2021/01/04 02:49:22;;;;;;;;;;;6.90;66.30;;;;;;5131202;27;19923;-71
2021/01/04 02:51:55;;;;;;;;;;;6.70;67.00;;;;;;5130897;27;19924;-73
2021/01/04 02:54:23;;;;;;;;;;;7.00;67.40;;;;;;5131245;28;19923;-73
2021/01/04 02:56:55;;;;;;;;;;;6.50;68.10;;;;;;5131266;28;20150;-72
2021/01/04 02:59:24;;;;;;;;;;;6.50;69.60;;;;;;5130791;28;20085;-72
2021/01/04 03:01:54;;;;;;;;;;;6.40;68.30;;;;;;5130941;28;19931;-72
2021/01/04 03:04:22;;;;;;;;;;;6.70;70.10;;;;;;5131472;28;19935;-72
2021/01/04 03:06:54;;;;;;;;;;;6.70;67.00;;;;;;5131005;28;19946;-73
2021/01/04 03:09:21;;;;;;;;;;;6.80;68.20;;;;;;5130505;28;20616;-72
2021/01/04 03:11:47;;;;;;;;;;;6.80;68.70;;;;;;5110202;28;19924;-71
2021/01/04 03:14:49;;;;;;;;;;;6.80;68.80;;;;;;5110282;28;19924;-72
2021/01/04 03:17:18;;;;;;;;;;;6.80;67.80;;;;;;5036743;28;19924;-72
2021/01/04 03:19:47;;;;;;;;;;;6.60;69.60;;;;;;5084754;28;19955;-72
2021/01/04 03:22:14;;;;;;;;;;;6.60;69.10;;;;;;5110478;28;19931;-72
2021/01/04 03:24:44;;;;;;;;;;;6.80;69.00;;;;;;5110069;28;20285;-72
2021/01/04 03:27:12;;;;;;;;;;;6.90;67.70;;;;;;5110093;28;19935;-71
2021/01/04 03:29:39;;;;;;;;;;;7.00;70.20;;;;;;5110054;28;20019;-72
2021/01/04 03:32:05;;;;;;;;;;;7.10;67.90;;;;;;5110197;28;19924;-73
2021/01/04 03:34:31;;;;;;;;;;;6.90;69.10;;;;;;5113809;28;19923;-72
2021/01/04 03:36:58;;;;;;;;;;;6.90;67.60;;;;;;5114190;28;19946;-71
2021/01/04 03:39:28;;;;;;;;;;;7.20;68.10;;;;;;5113808;28;19924;-71
2021/01/04 03:41:55;;;;;;;;;;;7.60;67.40;;;;;;5095745;28;20492;-72
2021/01/04 03:44:23;;;;;;;;;;;8.00;64.70;;;;;;5095609;28;20380;-72
2021/01/04 03:46:49;;;;;;;;;;;8.30;63.20;;;;;;5113724;28;19932;-72
2021/01/04 03:49:15;;;;;;;;;;;8.30;62.90;;;;;;5113780;28;19931;-71
2021/01/04 03:51:52;;;;;;;;;;;8.40;65.20;;;;;;5113162;28;20380;-72
2021/01/04 03:54:19;;;;;;;;;;;8.30;63.30;;;;;;5113697;28;19924;-72
2021/01/04 03:56:45;;;;;;;;;;;8.60;64.50;;;;;;5113349;28;19924;-72
2021/01/04 03:59:13;;;;;;;;;;;8.80;61.40;;;;;;5113640;28;19947;-72
2021/01/04 04:01:46;;;;;;;;;;;9.10;60.00;;;;;;5113439;28;19924;-68
2021/01/04 04:04:12;;;;;;;;;;;9.20;59.50;;;;;;5113342;28;20006;-70
2021/01/04 04:06:38;;;;;;;;;;;9.00;60.10;;;;;;5113171;28;20350;-73
2021/01/04 04:09:05;;;;;;;;;;;8.30;61.10;;;;;;5113159;28;20361;-72
2021/01/04 04:11:31;;;;;;;;;;;8.30;63.30;;;;;;5112947;28;20006;-72
2021/01/04 04:13:57;;;;;;;;;;;8.40;61.50;;;;;;5113202;28;20502;-73
2021/01/04 04:16:24;;;;;;;;;;;8.20;63.10;;;;;;5120784;27;19959;-73
2021/01/04 04:18:51;;;;;;;;;;;7.80;63.50;;;;;;5133652;27;19938;-72
2021/01/04 04:21:17;;;;;;;;;;;7.40;64.70;;;;;;5133561;27;19924;-71
2021/01/04 04:23:43;;;;;;;;;;;7.50;66.20;;;;;;5133339;27;19930;-73
2021/01/04 04:26:20;;;;;;;;;;;7.60;66.90;;;;;;5133612;27;19923;-72
2021/01/04 04:28:46;;;;;;;;;;;8.10;65.00;;;;;;5133751;27;20271;-72
2021/01/04 04:31:13;;;;;;;;;;;8.40;62.70;;;;;;5115129;27;19970;-71
2021/01/04 04:33:40;;;;;;;;;;;8.40;61.90;;;;;;5133280;27;20252;-72
2021/01/04 04:36:08;;;;;;;;;;;8.20;63.70;;;;;;5133029;27;19934;-72
2021/01/04 04:38:34;;;;;;;;;;;7.70;63.80;;;;;;5133301;27;19923;-72
2021/01/04 04:41:02;;;;;;;;;;;7.80;65.20;;;;;;5114799;27;20409;-71
2021/01/04 04:43:34;;;;;;;;;;;8.10;64.80;;;;;;5114460;27;20358;-71
2021/01/04 04:46:02;;;;;;;;;;;8.20;62.80;;;;;;5133509;27;19927;-73
2021/01/04 04:48:49;;;;;;;;;;;8.10;63.60;;;;;;5132971;27;19930;-71
2021/01/04 04:51:24;;;;;;;;;;;8.20;63.40;;;;;;5132649;27;20062;-72
2021/01/04 04:54:06;;;;;;;;;;;8.50;63.50;;;;;;5114524;27;20147;-71
2021/01/04 04:56:41;;;;;;;;;;;8.20;63.70;;;;;;5133333;27;19923;-72
2021/01/04 04:59:21;;;;;;;;;;;7.90;63.70;;;;;;5133063;27;20022;-74
2021/01/04 05:01:54;;;;;;;;;;;8.10;64.70;;;;;;5133127;27;20078;-72
2021/01/04 05:04:39;;;;;;;;;;;7.90;65.30;;;;;;5132819;27;19930;-72
2021/01/04 05:07:13;;;;;;;;;;;8.10;63.70;;;;;;5132358;27;19924;-72
2021/01/04 05:09:46;;;;;;;;;;;8.50;62.20;;;;;;5128976;27;19928;-72
2021/01/04 05:12:15;;;;;;;;;;;8.10;62.30;;;;;;5111962;28;19924;-72
2021/01/04 05:14:46;;;;;;;;;;;8.50;64.50;;;;;;5111734;28;19924;-73
2021/01/04 05:17:12;;;;;;;;;;;8.80;61.10;;;;;;5126376;27;19928;-72
2021/01/04 05:19:38;;;;;;;;;;;8.80;60.30;;;;;;5132557;27;19923;-71
2021/01/04 05:22:23;;;;;;;;;;;8.60;60.50;;;;;;5132151;27;19928;-72
2021/01/04 05:24:56;;;;;;;;;;;8.00;62.80;;;;;;5132301;27;19923;-71
2021/01/04 05:27:25;;;;;;;;;;;7.50;64.70;;;;;;5132268;27;19924;-73
2021/01/04 05:30:07;;;;;;;;;;;7.20;66.20;;;;;;5131975;27;19923;-72
2021/01/04 05:32:45;;;;;;;;;;;7.30;66.70;;;;;;5132194;27;19923;-71
2021/01/04 05:35:13;;;;;;;;;;;7.90;66.20;;;;;;5113848;27;19923;-71
2021/01/04 05:37:40;;;;;;;;;;;8.00;64.50;;;;;;5131968;27;19924;-72
2021/01/04 05:40:25;;;;;;;;;;;8.00;64.00;;;;;;5132012;27;20299;-72
2021/01/04 05:43:03;;;;;;;;;;;8.00;65.00;;;;;;5131925;27;19928;-72
2021/01/04 05:45:31;;;;;;;;;;;8.10;61.90;;;;;;5132037;27;19930;-72
2021/01/04 05:48:00;;;;;;;;;;;7.90;64.40;;;;;;5131833;27;19924;-72
2021/01/04 05:50:35;;;;;;;;;;;7.90;65.40;;;;;;5131689;27;20303;-72
2021/01/04 05:53:02;;;;;;;;;;;7.50;64.60;;;;;;5131876;27;19950;-72
2021/01/04 05:55:28;;;;;;;;;;;7.50;67.70;;;;;;5131018;27;19959;-71
2021/01/04 05:57:55;;;;;;;;;;;7.80;65.50;;;;;;5131790;27;20415;-72
2021/01/04 06:00:33;;;;;;;;;;;7.40;65.30;;;;;;5132102;27;19946;-71
2021/01/04 06:03:19;;;;;;;;;;;7.40;67.20;;;;;;5131855;27;19924;-72
2021/01/04 06:05:46;;;;;;;;;;;7.40;65.60;;;;;;5131352;27;19930;-72
2021/01/04 06:08:38;;;;;;;;;;;7.30;66.80;;;;;;5131701;27;19930;-72
2021/01/04 06:11:06;;;;;;;;;;;7.10;66.90;;;;;;5111577;27;20170;-72
2021/01/04 06:13:40;;;;;;;;;;;6.90;67.20;;;;;;5110894;28;19923;-72
2021/01/04 06:16:07;;;;;;;;;;;7.30;68.30;;;;;;5116371;27;19923;-72
2021/01/04 06:18:38;;;;;;;;;;;7.20;67.80;;;;;;5131369;27;19928;-73
2021/01/04 06:21:16;;;;;;;;;;;7.20;66.70;;;;;;5131484;27;20154;-73
2021/01/04 06:23:43;;;;;;;;;;;7.00;68.60;;;;;;5131347;27;19923;-71
2021/01/04 06:26:18;;;;;;;;;;;7.30;66.60;;;;;;5130851;27;19923;-71
2021/01/04 06:28:56;;;;;;;;;;;7.20;66.90;;;;;;5131851;27;20101;-71
2021/01/04 06:31:34;;;;;;;;;;;7.50;66.80;;;;;;5131323;27;19923;-72
2021/01/04 06:34:03;;;;;;;;;;;7.50;65.90;;;;;;5131199;27;19924;-72
2021/01/04 06:36:32;;;;;;;;;;;7.10;67.50;;;;;;5131269;27;20001;-71
2021/01/04 06:39:10;;;;;;;;;;;7.00;67.60;;;;;;5131377;27;19923;-71
2021/01/04 06:41:36;;;;;;;;;;;7.30;67.70;;;;;;5131241;27;19927;-72
2021/01/04 06:44:17;;;;;;;;;;;7.70;65.90;;;;;;5131736;27;20391;-72
2021/01/04 06:47:01;;;;;;;;;;;8.20;66.30;;;;;;5131415;27;19946;-71
2021/01/04 06:49:31;;;;;;;;;;;8.30;61.70;;;;;;5131130;27;20246;-71
2021/01/04 06:52:03;;;;;;;;;;;7.70;63.70;;;;;;5113326;27;19924;-71
2021/01/04 06:54:29;;;;;;;;;;;7.60;66.10;;;;;;5131606;28;19931;-70
2021/01/04 06:57:28;;;;;;;;;;;7.50;64.70;;;;;;5130921;28;20125;-71
2021/01/04 07:00:00;;;;;;;;;;;7.70;67.50;;;;;;5074108;28;20433;-72
2021/01/04 07:02:45;;;;;;;;;;;8.10;64.50;;;;;;5130529;28;19923;-72
2021/01/04 07:05:30;;;;;;;;;;;7.80;64.10;;;;;;5130771;28;19923;-72
2021/01/04 07:08:02;;;;;;;;;;;8.00;64.60;;;;;;5133228;27;19924;-72
2021/01/04 07:10:35;;;;;;;;;;;7.70;64.70;;;;;;5125018;27;19931;-71
2021/01/04 07:13:13;;;;;;;;;;;7.40;65.40;;;;;;5114046;28;19935;-71
2021/01/04 07:15:59;;;;;;;;;;;6.90;67.50;;;;;;5116582;27;19923;-71
2021/01/04 07:18:25;;;;;;;;;;;6.70;68.10;;;;;;5135471;27;20280;-73
2021/01/04 07:21:01;;;;;;;;;;;6.90;69.30;;;;;;5135544;27;20055;-73
2021/01/04 07:23:46;;;;;;;;;;;6.80;68.30;;;;;;5134688;27;20394;-72
2021/01/04 07:26:24;;;;;;;;;;;6.90;67.50;;;;;;5134979;27;19923;-72
2021/01/04 07:29:06;;;;;;;;;;;6.80;68.70;;;;;;5134700;27;19927;-72
2021/01/04 07:31:36;;;;;;;;;;;6.70;69.40;;;;;;5134785;27;19923;-72
2021/01/04 07:34:02;;;;;;;;;;;6.60;69.30;;;;;;5134542;27;19923;-71
2021/01/04 07:36:31;;;;;;;;;;;6.70;68.80;;;;;;5134939;27;19935;-72
2021/01/04 07:39:06;;;;;;;;;;;6.70;69.80;;;;;;5134816;27;20288;-72
2021/01/04 07:41:38;;;;;;;;;;;6.60;69.10;;;;;;5134571;27;19923;-72
2021/01/04 07:44:08;;;;;;;;;;;6.50;70.30;;;;;;5134804;27;19931;-72
2021/01/04 07:46:47;;;;;;;;;;;6.80;70.20;;;;;;5134677;27;19931;-72
2021/01/04 07:49:32;;;;;;;;;;;7.00;68.60;;;;;;5134335;27;19923;-71
2021/01/04 07:52:17;;;;;;;;;;;7.00;68.00;;;;;;5134296;27;19923;-72
2021/01/04 07:55:02;;;;;;;;;;;6.30;68.60;;;;;;5134645;27;19923;-72
2021/01/04 07:57:44;;;;;;;;;;;7.40;68.40;;;;;;5134893;27;20098;-71
2021/01/04 08:00:29;;;;;;;;;;;7.20;67.10;;;;;;5134347;27;19943;-72
2021/01/04 08:03:01;;;;;;;;;;;7.20;67.40;;;;;;5134191;27;20296;-72
2021/01/04 08:05:35;;;;;;;;;;;7.10;69.00;;;;;;5116483;27;19923;-72
2021/01/04 08:08:20;;;;;;;;;;;7.00;69.30;;;;;;5133963;27;20295;-72
2021/01/04 08:10:55;;;;;;;;;;;7.10;68.80;;;;;;5121460;27;19924;-72
2021/01/04 08:13:41;;;;;;;;;;;7.10;67.50;;;;;;5113304;28;19978;-71
2021/01/04 08:16:12;;;;;;;;;;;7.30;68.20;;;;;;5118885;27;19930;-73
2021/01/04 08:18:39;;;;;;;;;;;7.00;69.80;;;;;;5133107;27;19931;-72
2021/01/04 08:21:16;;;;;;;;;;;7.00;69.70;;;;;;5133783;27;19927;-72
2021/01/04 08:23:59;;;;;;;;;;;6.90;69.30;;;;;;5133789;27;19969;-72
2021/01/04 08:26:34;;;;;;;;;;;6.80;70.20;;;;;;5133991;27;19923;-72
2021/01/04 08:29:01;;;;;;;;;;;6.90;71.00;;;;;;5133857;27;19927;-72
2021/01/04 08:31:46;;;;;;;;;;;7.10;69.80;;;;;;5133756;27;19924;-72
2021/01/04 08:34:22;;;;;;;;;;;7.00;69.40;;;;;;5133701;27;19924;-72
2021/01/04 08:36:59;;;;;;;;;;;6.80;70.00;;;;;;5133678;27;20268;-72
2021/01/04 08:39:25;;;;;;;;;;;6.70;71.50;;;;;;5133625;27;20013;-73
2021/01/04 08:42:01;;;;;;;;;;;7.00;70.10;;;;;;5133598;27;19946;-71
2021/01/04 08:44:27;;;;;;;;;;;7.10;70.10;;;;;;5133532;27;20292;-72
2021/01/04 08:46:54;;;;;;;;;;;6.90;69.10;;;;;;5133367;27;19938;-73
2021/01/04 08:49:22;;;;;;;;;;;6.90;70.60;;;;;;5133237;27;19924;-74
2021/01/04 08:51:49;;;;;;;;;;;6.60;71.00;;;;;;5133178;27;19923;-72
2021/01/04 08:54:21;;;;;;;;;;;6.60;71.20;;;;;;5133137;27;20327;-72
2021/01/04 08:56:49;;;;;;;;;;;6.60;71.90;;;;;;5133017;27;20376;-72
2021/01/04 08:59:23;;;;;;;;;;;6.90;70.50;;;;;;5133495;27;19950;-72
2021/01/04 09:01:56;;;;;;;;;;;7.10;71.40;;;;;;5133062;27;19961;-71
2021/01/04 09:04:25;;;;;;;;;;;6.90;69.70;;;;;;5132986;27;19970;-73
2021/01/04 09:07:02;;;;;;;;;;;6.90;69.40;;;;;;5133325;27;19924;-71
2021/01/04 09:09:35;;;;;;;;;;;7.10;70.10;;;;;;5131226;27;19928;-72
2021/01/04 09:12:19;;;;;;;;;;;7.00;69.20;;;;;;5112228;28;19931;-71
2021/01/04 09:14:57;;;;;;;;;;;7.10;71.20;;;;;;5111984;28;19931;-72
2021/01/04 09:17:31;;;;;;;;;;;7.00;69.40;;;;;;5128654;27;20162;-72
2021/01/04 09:20:20;;;;;;;;;;;7.00;69.90;;;;;;5132769;27;19923;-72
2021/01/04 09:22:47;;;;;;;;;;;6.90;69.80;;;;;;5131647;27;19934;-72
2021/01/04 09:25:19;;;;;;;;;;;7.00;69.90;;;;;;5132554;27;19930;-71
2021/01/04 09:27:47;;;;;;;;;;;6.70;70.20;;;;;;5132262;27;19923;-72
2021/01/04 09:30:18;;;;;;;;;;;6.80;70.80;;;;;;5131472;27;19923;-73
2021/01/04 09:33:04;;;;;;;;;;;6.80;70.50;;;;;;5132608;27;19947;-72
2021/01/04 09:35:30;;;;;;;;;;;6.90;69.70;;;;;;5132446;27;19931;-72
2021/01/04 09:38:04;;;;;;;;;;;7.00;69.80;;;;;;5114231;27;19924;-71
2021/01/04 09:40:31;;;;;;;;;;;7.00;69.30;;;;;;5132307;27;19927;-72
2021/01/04 09:43:10;;;;;;;;;;;6.60;70.60;;;;;;5132657;27;19927;-72
2021/01/04 09:45:38;;;;;;;;;;;6.70;70.10;;;;;;5132416;27;19923;-72
2021/01/04 09:48:22;;;;;;;;;;;6.90;71.10;;;;;;5132293;27;19924;-71
2021/01/04 09:50:56;;;;;;;;;;;7.00;69.30;;;;;;5131940;27;19953;-72
2021/01/04 09:53:34;;;;;;;;;;;6.70;69.90;;;;;;5132166;27;19923;-72
2021/01/04 09:56:04;;;;;;;;;;;6.80;70.50;;;;;;5132597;27;19924;-71
2021/01/04 09:58:31;;;;;;;;;;;6.70;70.40;;;;;;5132277;27;19924;-71
2021/01/04 10:01:11;;;;;;;;;;;6.50;70.20;;;;;;5131970;27;20026;-72
2021/01/04 10:03:38;;;;;;;;;;;6.50;71.10;;;;;;5131963;27;20359;-71
2021/01/04 10:06:07;;;;;;;;;;;6.50;70.90;;;;;;5132103;27;19930;-73
2021/01/04 10:08:33;;;;;;;;;;;6.70;71.00;;;;;;5131673;27;20380;-71
2021/01/04 10:11:01;;;;;;;;;;;6.70;70.40;;;;;;5117080;27;20384;-72
2021/01/04 10:13:29;;;;;;;;;;;6.70;70.10;;;;;;5111074;28;20387;-73
2021/01/04 10:15:56;;;;;;;;;;;6.70;70.80;;;;;;5115320;27;19949;-71
2021/01/04 10:18:23;;;;;;;;;;;6.70;70.30;;;;;;5131970;27;19976;-72
2021/01/04 10:20:51;;;;;;;;;;;6.50;71.50;;;;;;5131903;27;20287;-71
2021/01/04 10:23:37;;;;;;;;;;;6.60;71.00;;;;;;5113391;27;19923;-71
2021/01/04 10:26:24;;;;;;;;;;;6.50;71.80;;;;;;5131720;27;19968;-71
2021/01/04 10:28:51;;;;;;;;;;;6.40;72.00;;;;;;5131380;27;19931;-71
2021/01/04 10:31:21;;;;;;;;;;;6.80;71.10;;;;;;5131572;27;19927;-72
2021/01/04 10:33:48;;;;;;;;;;;6.70;70.30;;;;;;5131508;27;19931;-72
2021/01/04 10:36:14;;;;;;;;;;;6.60;71.50;;;;;;5131511;27;19949;-72
2021/01/04 10:38:43;;;;;;;;;;;6.60;71.00;;;;;;5132074;27;19934;-74
2021/01/04 10:41:12;;;;;;;;;;;6.80;71.20;;;;;;5131084;27;19924;-71
2021/01/04 10:43:38;;;;;;;;;;;6.80;71.10;;;;;;5131186;27;19924;-71
2021/01/04 10:46:21;;;;;;;;;;;7.20;69.80;;;;;;5131260;27;20366;-72
2021/01/04 10:48:58;;;;;;;;;;;7.10;68.20;;;;;;5112621;27;20318;-71
2021/01/04 10:51:26;;;;;;;;;;;7.20;69.60;;;;;;5130687;28;19930;-72
2021/01/04 10:53:54;;;;;;;;;;;7.70;67.80;;;;;;5130214;27;20469;-71
2021/01/04 10:56:35;;;;;;;;;;;7.80;65.80;;;;;;5130817;28;19923;-72
2021/01/04 10:59:17;;;;;;;;;;;7.90;66.90;;;;;;5130649;28;19927;-71
2021/01/04 11:01:45;;;;;;;;;;;8.10;65.70;;;;;;5130537;28;19923;-72
2021/01/04 11:04:13;;;;;;;;;;;8.20;65.10;;;;;;5130551;28;19930;-72
2021/01/04 11:06:43;;;;;;;;;;;8.10;64.70;;;;;;5130268;28;20401;-72
2021/01/04 11:09:19;;;;;;;;;;;7.60;66.00;;;;;;5112342;28;20488;-72
2021/01/04 11:11:49;;;;;;;;;;;7.50;67.10;;;;;;5110010;28;19924;-71
2021/01/04 11:14:20;;;;;;;;;;;7.40;67.30;;;;;;5110365;28;19946;-72
2021/01/04 11:17:22;;;;;;;;;;;7.30;67.20;;;;;;5123367;28;20022;-72
2021/01/04 11:19:48;;;;;;;;;;;7.30;67.90;;;;;;5131212;28;19928;-71
2021/01/04 11:22:20;;;;;;;;;;;7.40;68.00;;;;;;5130949;28;19923;-72
2021/01/04 11:24:47;;;;;;;;;;;7.00;68.20;;;;;;5130808;28;19924;-72
2021/01/04 11:27:13;;;;;;;;;;;6.90;69.90;;;;;;5130730;28;20304;-72
2021/01/04 11:29:41;;;;;;;;;;;7.00;68.60;;;;;;5130727;28;20405;-72
2021/01/04 11:32:08;;;;;;;;;;;6.80;69.50;;;;;;5130718;28;19924;-71
2021/01/04 11:34:42;;;;;;;;;;;7.00;69.30;;;;;;5112674;28;20358;-72
2021/01/04 11:37:09;;;;;;;;;;;7.20;69.60;;;;;;5130624;28;20294;-71
2021/01/04 11:39:36;;;;;;;;;;;7.60;66.50;;;;;;5112396;28;19950;-71
2021/01/04 11:42:03;;;;;;;;;;;7.60;67.10;;;;;;5130648;28;20303;-71
2021/01/04 11:44:30;;;;;;;;;;;7.60;65.90;;;;;;5130191;28;19930;-72
2021/01/04 11:46:56;;;;;;;;;;;7.30;66.80;;;;;;5130452;28;19931;-72
2021/01/04 11:49:22;;;;;;;;;;;7.40;68.00;;;;;;5130284;28;20418;-72
2021/01/04 11:51:49;;;;;;;;;;;7.20;67.70;;;;;;5130335;28;19932;-71
2021/01/04 11:54:16;;;;;;;;;;;7.20;69.30;;;;;;5132205;27;20287;-72
2021/01/04 11:56:42;;;;;;;;;;;7.20;67.40;;;;;;5134131;27;19923;-72
2021/01/04 11:59:09;;;;;;;;;;;6.90;67.90;;;;;;5134038;27;19930;-72
2021/01/04 12:01:36;;;;;;;;;;;7.00;68.70;;;;;;5134665;27;20186;-71
2021/01/04 12:04:03;;;;;;;;;;;7.00;68.90;;;;;;5134170;27;19931;-71
2021/01/04 12:06:29;;;;;;;;;;;7.40;67.30;;;;;;5134047;27;20017;-71
2021/01/04 12:08:56;;;;;;;;;;;7.70;66.10;;;;;;5133740;27;20018;-72
2021/01/04 12:11:23;;;;;;;;;;;7.70;67.50;;;;;;5116103;27;19930;-71
2021/01/04 12:13:49;;;;;;;;;;;7.70;65.00;;;;;;5113172;28;19924;-72
2021/01/04 12:16:16;;;;;;;;;;;7.50;66.00;;;;;;5119941;27;19946;-71
2021/01/04 12:18:42;;;;;;;;;;;7.60;66.30;;;;;;5133728;27;19930;-72
2021/01/04 12:21:09;;;;;;;;;;;7.70;65.80;;;;;;5133842;27;19923;-72
2021/01/04 12:23:35;;;;;;;;;;;7.80;64.00;;;;;;5133542;27;20306;-72
2021/01/04 12:26:01;;;;;;;;;;;7.70;64.00;;;;;;5134093;27;19934;-72
2021/01/04 12:28:27;;;;;;;;;;;7.60;65.20;;;;;;5133495;27;19929;-72
2021/01/04 12:30:54;;;;;;;;;;;7.80;64.90;;;;;;5133404;27;20341;-72
2021/01/04 12:33:20;;;;;;;;;;;7.60;64.50;;;;;;5133582;27;19994;-72
2021/01/04 12:35:47;;;;;;;;;;;7.70;65.30;;;;;;5133424;27;19930;-71
2021/01/04 12:38:13;;;;;;;;;;;7.80;65.50;;;;;;5133337;27;19923;-72
2021/01/04 12:40:39;;;;;;;;;;;7.90;63.70;;;;;;5133288;27;19924;-72
2021/01/04 12:43:06;;;;;;;;;;;7.70;63.10;;;;;;5133475;27;19923;-72
2021/01/04 12:45:34;;;;;;;;;;;7.20;65.10;;;;;;5133237;27;19931;-72
2021/01/04 12:48:01;;;;;;;;;;;7.00;66.20;;;;;;5134195;27;19927;-71
2021/01/04 12:50:27;;;;;;;;;;;7.20;66.50;;;;;;5134014;27;20295;-71
2021/01/04 12:52:53;;;;;;;;;;;7.20;65.90;;;;;;5133457;27;19924;-72
2021/01/04 12:55:21;;;;;;;;;;;7.20;65.80;;;;;;5133074;27;19923;-73
2021/01/04 12:57:47;;;;;;;;;;;7.10;66.40;;;;;;5133574;27;19924;-72
2021/01/04 13:00:20;;;;;;;;;;;7.50;66.80;;;;;;5133028;27;20409;-72
2021/01/04 13:02:46;;;;;;;;;;;7.80;65.00;;;;;;5133085;27;20014;-73
2021/01/04 13:05:13;;;;;;;;;;;8.00;64.20;;;;;;5132730;27;19923;-72
2021/01/04 13:07:44;;;;;;;;;;;8.10;65.20;;;;;;5132535;27;19931;-72
2021/01/04 13:10:11;;;;;;;;;;;7.60;64.60;;;;;;5125147;27;19935;-72
2021/01/04 13:12:38;;;;;;;;;;;7.40;66.60;;;;;;5094733;28;19927;-72
2021/01/04 13:15:05;;;;;;;;;;;7.00;67.60;;;;;;5112778;28;19924;-72
2021/01/04 13:17:32;;;;;;;;;;;7.10;67.60;;;;;;5130154;27;19924;-72
2021/01/04 13:19:59;;;;;;;;;;;7.10;67.70;;;;;;5133038;27;19923;-71
2021/01/04 13:22:26;;;;;;;;;;;6.90;66.50;;;;;;5133104;27;19931;-73
2021/01/04 13:24:53;;;;;;;;;;;7.20;66.40;;;;;;5133099;27;20387;-72
2021/01/04 13:27:20;;;;;;;;;;;7.00;67.90;;;;;;5132638;27;19923;-72
2021/01/04 13:29:46;;;;;;;;;;;6.80;67.60;;;;;;5132863;27;19931;-71
2021/01/04 13:32:12;;;;;;;;;;;6.70;68.80;;;;;;5132757;27;19946;-71
2021/01/04 13:34:39;;;;;;;;;;;6.80;68.50;;;;;;5132486;27;19924;-72
2021/01/04 13:37:06;;;;;;;;;;;6.90;67.70;;;;;;5132970;27;19923;-71
2021/01/04 13:39:32;;;;;;;;;;;6.90;67.70;;;;;;5132458;27;19923;-72
2021/01/04 13:41:59;;;;;;;;;;;6.70;68.70;;;;;;5132546;27;19930;-72
2021/01/04 13:44:26;;;;;;;;;;;6.70;69.00;;;;;;5132262;27;19939;-72
2021/01/04 13:47:00;;;;;;;;;;;7.00;68.20;;;;;;5132248;27;19924;-72
2021/01/04 13:49:27;;;;;;;;;;;7.00;68.20;;;;;;5132065;27;19930;-73
2021/01/04 13:51:53;;;;;;;;;;;7.20;67.40;;;;;;5113808;27;19924;-72
2021/01/04 13:54:19;;;;;;;;;;;7.10;67.20;;;;;;5131742;27;19924;-72
2021/01/04 13:56:47;;;;;;;;;;;6.90;67.60;;;;;;5113979;27;20162;-72
2021/01/04 13:59:13;;;;;;;;;;;6.80;67.90;;;;;;5131972;27;19923;-72
2021/01/04 14:01:41;;;;;;;;;;;6.80;68.80;;;;;;5131835;27;19931;-73
2021/01/04 14:04:11;;;;;;;;;;;6.80;68.50;;;;;;5131938;27;19923;-73
2021/01/04 14:06:42;;;;;;;;;;;6.60;69.30;;;;;;5131717;27;20306;-73
2021/01/04 14:09:08;;;;;;;;;;;6.80;68.00;;;;;;5131487;27;19923;-73
2021/01/04 14:11:35;;;;;;;;;;;6.90;69.10;;;;;;5112209;28;20390;-72
2021/01/04 14:14:02;;;;;;;;;;;6.80;68.50;;;;;;5111256;28;19924;-71
2021/01/04 14:16:29;;;;;;;;;;;6.90;68.70;;;;;;5119256;27;19923;-72
2021/01/04 14:18:55;;;;;;;;;;;6.80;68.20;;;;;;5131959;27;19924;-72
2021/01/04 14:21:23;;;;;;;;;;;6.50;69.20;;;;;;5132198;27;19970;-72
2021/01/04 14:23:50;;;;;;;;;;;6.50;69.90;;;;;;5132052;27;19924;-73
2021/01/04 14:26:20;;;;;;;;;;;6.30;70.10;;;;;;5132660;27;19934;-73
2021/01/04 14:28:47;;;;;;;;;;;6.30;70.80;;;;;;5132489;27;19924;-73
2021/01/04 14:31:13;;;;;;;;;;;6.30;70.50;;;;;;5133191;27;19929;-73
2021/01/04 14:33:39;;;;;;;;;;;6.40;70.20;;;;;;5135754;27;19924;-72
2021/01/04 14:36:06;;;;;;;;;;;6.50;70.00;;;;;;5136731;27;19929;-73
2021/01/04 14:38:32;;;;;;;;;;;6.40;69.70;;;;;;5137081;27;19930;-73
2021/01/04 14:40:59;;;;;;;;;;;6.50;70.90;;;;;;5131746;27;19928;-73
2021/01/04 14:43:25;;;;;;;;;;;6.50;69.70;;;;;;5131315;27;20749;-73
2021/01/04 14:45:51;;;;;;;;;;;6.70;70.10;;;;;;5131237;27;20407;-73
2021/01/04 14:48:18;;;;;;;;;;;6.70;69.90;;;;;;5130983;27;19923;-76
2021/01/04 14:50:44;;;;;;;;;;;6.60;69.30;;;;;;5112839;28;20326;-74
2021/01/04 14:53:10;;;;;;;;;;;6.60;69.80;;;;;;5131256;27;19934;-73
2021/01/04 14:55:36;;;;;;;;;;;6.80;69.20;;;;;;5112812;27;19927;-74
2021/01/04 14:58:03;;;;;;;;;;;6.80;68.60;;;;;;5131152;28;19931;-75